sensor_id;sensor_type;location;lat;lon;timestamp;P1;durP1;ratioP1;P2;durP2;ratioP2
22064;SDS011;11197;53.110;8.468;2023-06-26T00:02:14;8.32;;;6.95;;
22064;SDS011;11197;53.110;8.468;2023-06-26T00:04:41;7.82;;;7.03;;
22064;SDS011;11197;53.110;8.468;2023-06-26T00:07:10;8.13;;;6.95;;
22064;SDS011;11197;53.110;8.468;2023-06-26T00:09:36;9.15;;;6.63;;
22064;SDS011;11197;53.110;8.468;2023-06-26T00:12:02;7.90;;;7.10;;
22064;SDS011;11197;53.110;8.468;2023-06-26T00:14:28;8.50;;;7.40;;
22064;SDS011;11197;53.110;8.468;2023-06-26T00:16:54;7.95;;;7.15;;
22064;SDS011;11197;53.110;8.468;2023-06-26T00:19:20;7.50;;;6.78;;
22064;SDS011;11197;53.110;8.468;2023-06-26T00:21:46;7.78;;;6.97;;
22064;SDS011;11197;53.110;8.468;2023-06-26T00:24:13;7.93;;;7.10;;
22064;SDS011;11197;53.110;8.468;2023-06-26T00:26:39;7.32;;;6.63;;
22064;SDS011;11197;53.110;8.468;2023-06-26T00:29:05;7.72;;;6.90;;
22064;SDS011;11197;53.110;8.468;2023-06-26T00:31:32;8.75;;;7.38;;
22064;SDS011;11197;53.110;8.468;2023-06-26T00:34:00;7.88;;;6.78;;
22064;SDS011;11197;53.110;8.468;2023-06-26T00:36:26;7.53;;;6.75;;
22064;SDS011;11197;53.110;8.468;2023-06-26T00:38:52;8.45;;;7.00;;
22064;SDS011;11197;53.110;8.468;2023-06-26T00:41:18;8.68;;;7.28;;
22064;SDS011;11197;53.110;8.468;2023-06-26T00:43:44;8.32;;;7.22;;
22064;SDS011;11197;53.110;8.468;2023-06-26T00:46:10;8.02;;;7.22;;
22064;SDS011;11197;53.110;8.468;2023-06-26T00:48:41;7.50;;;6.80;;
22064;SDS011;11197;53.110;8.468;2023-06-26T00:51:07;8.27;;;7.15;;
22064;SDS011;11197;53.110;8.468;2023-06-26T00:53:33;8.15;;;7.30;;
22064;SDS011;11197;53.110;8.468;2023-06-26T00:56:00;8.32;;;7.05;;
22064;SDS011;11197;53.110;8.468;2023-06-26T00:58:28;7.82;;;7.05;;
22064;SDS011;11197;53.110;8.468;2023-06-26T01:00:56;8.73;;;7.72;;
22064;SDS011;11197;53.110;8.468;2023-06-26T01:03:23;7.90;;;7.07;;
22064;SDS011;11197;53.110;8.468;2023-06-26T01:05:50;8.77;;;7.65;;
22064;SDS011;11197;53.110;8.468;2023-06-26T01:08:18;8.77;;;7.32;;
22064;SDS011;11197;53.110;8.468;2023-06-26T01:10:44;7.97;;;7.18;;
22064;SDS011;11197;53.110;8.468;2023-06-26T01:13:11;8.35;;;7.13;;
22064;SDS011;11197;53.110;8.468;2023-06-26T01:15:38;8.35;;;7.18;;
22064;SDS011;11197;53.110;8.468;2023-06-26T01:18:05;8.85;;;7.05;;
22064;SDS011;11197;53.110;8.468;2023-06-26T01:20:34;9.50;;;7.10;;
22064;SDS011;11197;53.110;8.468;2023-06-26T01:25:48;8.60;;;7.57;;
22064;SDS011;11197;53.110;8.468;2023-06-26T01:28:38;8.77;;;7.18;;
22064;SDS011;11197;53.110;8.468;2023-06-26T01:31:06;8.15;;;7.15;;
22064;SDS011;11197;53.110;8.468;2023-06-26T01:33:33;8.70;;;7.80;;
22064;SDS011;11197;53.110;8.468;2023-06-26T01:36:00;10.13;;;7.72;;
22064;SDS011;11197;53.110;8.468;2023-06-26T01:38:26;9.23;;;7.50;;
22064;SDS011;11197;53.110;8.468;2023-06-26T01:40:55;9.00;;;7.65;;
22064;SDS011;11197;53.110;8.468;2023-06-26T01:45:48;9.48;;;7.53;;
22064;SDS011;11197;53.110;8.468;2023-06-26T01:48:17;9.15;;;7.55;;
22064;SDS011;11197;53.110;8.468;2023-06-26T01:50:53;8.90;;;7.68;;
22064;SDS011;11197;53.110;8.468;2023-06-26T01:53:23;9.02;;;8.13;;
22064;SDS011;11197;53.110;8.468;2023-06-26T01:55:53;8.80;;;7.88;;
22064;SDS011;11197;53.110;8.468;2023-06-26T01:58:26;8.80;;;7.90;;
22064;SDS011;11197;53.110;8.468;2023-06-26T02:00:53;8.50;;;7.70;;
22064;SDS011;11197;53.110;8.468;2023-06-26T02:03:19;9.25;;;7.53;;
22064;SDS011;11197;53.110;8.468;2023-06-26T02:05:45;8.45;;;7.55;;
22064;SDS011;11197;53.110;8.468;2023-06-26T02:08:14;9.02;;;7.70;;
22064;SDS011;11197;53.110;8.468;2023-06-26T02:10:47;9.93;;;7.70;;
22064;SDS011;11197;53.110;8.468;2023-06-26T02:13:15;10.15;;;8.10;;
22064;SDS011;11197;53.110;8.468;2023-06-26T02:15:41;8.98;;;7.50;;
22064;SDS011;11197;53.110;8.468;2023-06-26T02:18:07;8.73;;;7.65;;
22064;SDS011;11197;53.110;8.468;2023-06-26T02:20:33;8.43;;;7.45;;
22064;SDS011;11197;53.110;8.468;2023-06-26T02:22:59;9.98;;;8.00;;
22064;SDS011;11197;53.110;8.468;2023-06-26T02:25:25;8.10;;;7.30;;
22064;SDS011;11197;53.110;8.468;2023-06-26T02:27:51;8.70;;;7.80;;
22064;SDS011;11197;53.110;8.468;2023-06-26T02:30:18;8.50;;;7.53;;
22064;SDS011;11197;53.110;8.468;2023-06-26T02:32:44;8.77;;;7.88;;
22064;SDS011;11197;53.110;8.468;2023-06-26T02:35:10;9.43;;;7.95;;
22064;SDS011;11197;53.110;8.468;2023-06-26T02:37:40;10.07;;;7.32;;
22064;SDS011;11197;53.110;8.468;2023-06-26T02:40:07;9.18;;;8.13;;
22064;SDS011;11197;53.110;8.468;2023-06-26T02:42:36;8.52;;;7.63;;
22064;SDS011;11197;53.110;8.468;2023-06-26T02:45:03;8.07;;;7.28;;
22064;SDS011;11197;53.110;8.468;2023-06-26T02:47:31;9.00;;;8.10;;
22064;SDS011;11197;53.110;8.468;2023-06-26T02:49:56;9.82;;;8.82;;
22064;SDS011;11197;53.110;8.468;2023-06-26T02:52:22;11.07;;;9.98;;
22064;SDS011;11197;53.110;8.468;2023-06-26T02:54:48;10.27;;;9.18;;
22064;SDS011;11197;53.110;8.468;2023-06-26T02:57:14;10.07;;;8.10;;
22064;SDS011;11197;53.110;8.468;2023-06-26T02:59:41;9.15;;;8.20;;
22064;SDS011;11197;53.110;8.468;2023-06-26T03:02:08;8.70;;;7.80;;
22064;SDS011;11197;53.110;8.468;2023-06-26T03:04:39;9.45;;;7.75;;
22064;SDS011;11197;53.110;8.468;2023-06-26T03:07:08;8.43;;;7.57;;
22064;SDS011;11197;53.110;8.468;2023-06-26T03:09:35;9.07;;;8.18;;
22064;SDS011;11197;53.110;8.468;2023-06-26T03:12:01;10.75;;;8.40;;
22064;SDS011;11197;53.110;8.468;2023-06-26T03:14:27;9.07;;;8.15;;
22064;SDS011;11197;53.110;8.468;2023-06-26T03:16:54;9.65;;;8.38;;
22064;SDS011;11197;53.110;8.468;2023-06-26T03:19:24;8.77;;;7.90;;
22064;SDS011;11197;53.110;8.468;2023-06-26T03:22:13;9.20;;;7.88;;
22064;SDS011;11197;53.110;8.468;2023-06-26T03:24:39;8.88;;;7.90;;
22064;SDS011;11197;53.110;8.468;2023-06-26T03:27:04;9.15;;;8.20;;
22064;SDS011;11197;53.110;8.468;2023-06-26T03:29:31;11.07;;;8.50;;
22064;SDS011;11197;53.110;8.468;2023-06-26T03:31:56;8.95;;;8.05;;
22064;SDS011;11197;53.110;8.468;2023-06-26T03:34:22;9.05;;;8.13;;
22064;SDS011;11197;53.110;8.468;2023-06-26T03:36:48;9.00;;;8.10;;
22064;SDS011;11197;53.110;8.468;2023-06-26T03:39:14;7.80;;;6.93;;
22064;SDS011;11197;53.110;8.468;2023-06-26T03:41:40;9.10;;;8.05;;
22064;SDS011;11197;53.110;8.468;2023-06-26T03:44:06;9.32;;;8.30;;
22064;SDS011;11197;53.110;8.468;2023-06-26T03:46:40;10.50;;;7.95;;
22064;SDS011;11197;53.110;8.468;2023-06-26T03:49:06;9.20;;;8.20;;
22064;SDS011;11197;53.110;8.468;2023-06-26T03:51:32;9.40;;;8.20;;
22064;SDS011;11197;53.110;8.468;2023-06-26T03:53:57;9.05;;;8.10;;
22064;SDS011;11197;53.110;8.468;2023-06-26T03:56:23;11.55;;;8.40;;
22064;SDS011;11197;53.110;8.468;2023-06-26T03:58:49;8.55;;;7.75;;
22064;SDS011;11197;53.110;8.468;2023-06-26T04:01:15;9.48;;;8.10;;
22064;SDS011;11197;53.110;8.468;2023-06-26T04:03:42;9.23;;;8.27;;
22064;SDS011;11197;53.110;8.468;2023-06-26T04:06:10;10.68;;;8.38;;
22064;SDS011;11197;53.110;8.468;2023-06-26T04:08:36;9.00;;;7.53;;
22064;SDS011;11197;53.110;8.468;2023-06-26T04:11:01;9.90;;;7.80;;
22064;SDS011;11197;53.110;8.468;2023-06-26T04:13:27;9.52;;;8.48;;
22064;SDS011;11197;53.110;8.468;2023-06-26T04:15:53;11.85;;;8.50;;
22064;SDS011;11197;53.110;8.468;2023-06-26T04:18:18;13.70;;;8.88;;
22064;SDS011;11197;53.110;8.468;2023-06-26T04:21:03;12.50;;;8.68;;
22064;SDS011;11197;53.110;8.468;2023-06-26T04:23:32;10.70;;;8.63;;
22064;SDS011;11197;53.110;8.468;2023-06-26T04:25:59;10.63;;;8.50;;
22064;SDS011;11197;53.110;8.468;2023-06-26T04:28:24;8.95;;;8.05;;
22064;SDS011;11197;53.110;8.468;2023-06-26T04:30:50;12.85;;;8.88;;
22064;SDS011;11197;53.110;8.468;2023-06-26T04:33:16;11.85;;;9.02;;
22064;SDS011;11197;53.110;8.468;2023-06-26T04:35:42;9.73;;;7.82;;
22064;SDS011;11197;53.110;8.468;2023-06-26T04:38:10;11.20;;;8.73;;
22064;SDS011;11197;53.110;8.468;2023-06-26T04:40:36;15.95;;;8.57;;
22064;SDS011;11197;53.110;8.468;2023-06-26T04:43:02;9.85;;;8.45;;
22064;SDS011;11197;53.110;8.468;2023-06-26T04:45:28;11.27;;;7.90;;
22064;SDS011;11197;53.110;8.468;2023-06-26T04:47:54;11.38;;;8.20;;
22064;SDS011;11197;53.110;8.468;2023-06-26T04:50:21;11.82;;;8.70;;
22064;SDS011;11197;53.110;8.468;2023-06-26T04:52:47;9.95;;;7.68;;
22064;SDS011;11197;53.110;8.468;2023-06-26T04:55:13;10.40;;;8.30;;
22064;SDS011;11197;53.110;8.468;2023-06-26T04:57:39;9.45;;;8.13;;
22064;SDS011;11197;53.110;8.468;2023-06-26T05:00:04;11.50;;;8.20;;
22064;SDS011;11197;53.110;8.468;2023-06-26T05:02:35;8.68;;;7.53;;
22064;SDS011;11197;53.110;8.468;2023-06-26T05:05:00;9.55;;;7.70;;
22064;SDS011;11197;53.110;8.468;2023-06-26T05:07:26;11.02;;;7.38;;
22064;SDS011;11197;53.110;8.468;2023-06-26T05:09:52;8.00;;;6.97;;
22064;SDS011;11197;53.110;8.468;2023-06-26T05:12:18;8.88;;;7.25;;
22064;SDS011;11197;53.110;8.468;2023-06-26T05:14:44;8.15;;;7.20;;
22064;SDS011;11197;53.110;8.468;2023-06-26T05:17:10;9.10;;;7.60;;
22064;SDS011;11197;53.110;8.468;2023-06-26T05:19:36;8.35;;;7.47;;
22064;SDS011;11197;53.110;8.468;2023-06-26T05:22:02;7.38;;;5.72;;
22064;SDS011;11197;53.110;8.468;2023-06-26T05:24:32;9.93;;;7.35;;
22064;SDS011;11197;53.110;8.468;2023-06-26T05:27:02;8.63;;;7.38;;
22064;SDS011;11197;53.110;8.468;2023-06-26T05:29:31;9.40;;;7.55;;
22064;SDS011;11197;53.110;8.468;2023-06-26T05:31:58;10.57;;;7.40;;
22064;SDS011;11197;53.110;8.468;2023-06-26T05:34:24;9.23;;;6.88;;
22064;SDS011;11197;53.110;8.468;2023-06-26T05:36:55;8.95;;;6.97;;
22064;SDS011;11197;53.110;8.468;2023-06-26T05:41:49;8.70;;;7.63;;
22064;SDS011;11197;53.110;8.468;2023-06-26T05:44:16;10.38;;;7.90;;
22064;SDS011;11197;53.110;8.468;2023-06-26T05:46:42;8.30;;;7.30;;
22064;SDS011;11197;53.110;8.468;2023-06-26T05:49:08;9.30;;;7.70;;
22064;SDS011;11197;53.110;8.468;2023-06-26T05:51:34;11.27;;;8.10;;
22064;SDS011;11197;53.110;8.468;2023-06-26T05:54:01;9.50;;;7.13;;
22064;SDS011;11197;53.110;8.468;2023-06-26T05:56:27;11.02;;;8.02;;
22064;SDS011;11197;53.110;8.468;2023-06-26T05:58:53;9.43;;;7.82;;
22064;SDS011;11197;53.110;8.468;2023-06-26T06:01:20;10.70;;;7.93;;
22064;SDS011;11197;53.110;8.468;2023-06-26T06:03:46;9.35;;;7.72;;
22064;SDS011;11197;53.110;8.468;2023-06-26T06:06:11;10.90;;;8.15;;
22064;SDS011;11197;53.110;8.468;2023-06-26T06:08:37;10.60;;;7.97;;
22064;SDS011;11197;53.110;8.468;2023-06-26T06:11:03;10.20;;;7.72;;
22064;SDS011;11197;53.110;8.468;2023-06-26T06:13:30;11.05;;;8.20;;
22064;SDS011;11197;53.110;8.468;2023-06-26T06:15:55;9.32;;;7.90;;
22064;SDS011;11197;53.110;8.468;2023-06-26T06:18:21;8.60;;;7.32;;
22064;SDS011;11197;53.110;8.468;2023-06-26T06:20:47;9.38;;;7.45;;
22064;SDS011;11197;53.110;8.468;2023-06-26T06:23:13;9.43;;;7.97;;
22064;SDS011;11197;53.110;8.468;2023-06-26T06:25:39;9.95;;;8.13;;
22064;SDS011;11197;53.110;8.468;2023-06-26T06:28:05;13.32;;;8.68;;
22064;SDS011;11197;53.110;8.468;2023-06-26T06:30:31;12.13;;;9.48;;
22064;SDS011;11197;53.110;8.468;2023-06-26T06:32:57;12.77;;;9.60;;
22064;SDS011;11197;53.110;8.468;2023-06-26T06:35:23;11.55;;;9.75;;
22064;SDS011;11197;53.110;8.468;2023-06-26T06:37:49;11.82;;;9.35;;
22064;SDS011;11197;53.110;8.468;2023-06-26T06:40:15;17.13;;;9.75;;
22064;SDS011;11197;53.110;8.468;2023-06-26T06:42:41;13.15;;;8.95;;
22064;SDS011;11197;53.110;8.468;2023-06-26T06:45:07;11.82;;;9.35;;
22064;SDS011;11197;53.110;8.468;2023-06-26T06:47:33;10.75;;;8.50;;
22064;SDS011;11197;53.110;8.468;2023-06-26T06:50:00;12.35;;;9.35;;
22064;SDS011;11197;53.110;8.468;2023-06-26T06:52:38;12.20;;;9.55;;
22064;SDS011;11197;53.110;8.468;2023-06-26T06:55:06;10.07;;;8.60;;
22064;SDS011;11197;53.110;8.468;2023-06-26T06:57:34;15.77;;;9.38;;
22064;SDS011;11197;53.110;8.468;2023-06-26T07:02:34;11.30;;;9.07;;
22064;SDS011;11197;53.110;8.468;2023-06-26T07:05:01;11.35;;;8.63;;
22064;SDS011;11197;53.110;8.468;2023-06-26T07:07:29;11.95;;;8.27;;
22064;SDS011;11197;53.110;8.468;2023-06-26T07:09:57;11.40;;;8.68;;
22064;SDS011;11197;53.110;8.468;2023-06-26T07:12:27;12.68;;;8.65;;
22064;SDS011;11197;53.110;8.468;2023-06-26T07:14:54;12.00;;;8.70;;
22064;SDS011;11197;53.110;8.468;2023-06-26T07:17:20;12.43;;;8.50;;
22064;SDS011;11197;53.110;8.468;2023-06-26T07:19:46;11.20;;;8.70;;
22064;SDS011;11197;53.110;8.468;2023-06-26T07:22:12;12.63;;;9.50;;
22064;SDS011;11197;53.110;8.468;2023-06-26T07:24:38;8.88;;;7.68;;
22064;SDS011;11197;53.110;8.468;2023-06-26T07:27:04;12.18;;;9.15;;
22064;SDS011;11197;53.110;8.468;2023-06-26T07:29:30;13.55;;;8.73;;
22064;SDS011;11197;53.110;8.468;2023-06-26T07:31:55;12.18;;;9.77;;
22064;SDS011;11197;53.110;8.468;2023-06-26T07:34:21;11.13;;;9.00;;
22064;SDS011;11197;53.110;8.468;2023-06-26T07:36:47;11.88;;;10.18;;
22064;SDS011;11197;53.110;8.468;2023-06-26T07:39:12;13.80;;;11.38;;
22064;SDS011;11197;53.110;8.468;2023-06-26T07:41:38;13.95;;;10.50;;
22064;SDS011;11197;53.110;8.468;2023-06-26T07:44:04;12.52;;;10.20;;
22064;SDS011;11197;53.110;8.468;2023-06-26T07:46:30;14.50;;;10.00;;
22064;SDS011;11197;53.110;8.468;2023-06-26T07:48:55;13.35;;;9.23;;
22064;SDS011;11197;53.110;8.468;2023-06-26T07:51:21;14.55;;;9.70;;
22064;SDS011;11197;53.110;8.468;2023-06-26T07:53:47;14.02;;;8.80;;
22064;SDS011;11197;53.110;8.468;2023-06-26T07:56:13;14.02;;;9.23;;
22064;SDS011;11197;53.110;8.468;2023-06-26T07:58:38;12.85;;;8.30;;
22064;SDS011;11197;53.110;8.468;2023-06-26T08:01:04;12.27;;;8.52;;
22064;SDS011;11197;53.110;8.468;2023-06-26T08:03:30;12.90;;;8.40;;
22064;SDS011;11197;53.110;8.468;2023-06-26T08:05:55;12.48;;;9.80;;
22064;SDS011;11197;53.110;8.468;2023-06-26T08:08:22;9.75;;;8.63;;
22064;SDS011;11197;53.110;8.468;2023-06-26T08:10:48;15.00;;;9.38;;
22064;SDS011;11197;53.110;8.468;2023-06-26T08:13:13;11.95;;;8.70;;
22064;SDS011;11197;53.110;8.468;2023-06-26T08:15:39;13.27;;;8.65;;
22064;SDS011;11197;53.110;8.468;2023-06-26T08:18:05;10.68;;;7.85;;
22064;SDS011;11197;53.110;8.468;2023-06-26T08:20:30;10.75;;;8.70;;
22064;SDS011;11197;53.110;8.468;2023-06-26T08:22:56;14.05;;;9.75;;
22064;SDS011;11197;53.110;8.468;2023-06-26T08:25:22;15.45;;;10.05;;
22064;SDS011;11197;53.110;8.468;2023-06-26T08:27:48;13.88;;;9.70;;
22064;SDS011;11197;53.110;8.468;2023-06-26T08:30:13;13.85;;;9.25;;
22064;SDS011;11197;53.110;8.468;2023-06-26T08:32:39;14.38;;;10.52;;
22064;SDS011;11197;53.110;8.468;2023-06-26T08:35:06;14.63;;;10.88;;
22064;SDS011;11197;53.110;8.468;2023-06-26T08:37:32;17.73;;;11.93;;
22064;SDS011;11197;53.110;8.468;2023-06-26T08:39:59;15.20;;;10.75;;
22064;SDS011;11197;53.110;8.468;2023-06-26T08:42:25;15.57;;;12.13;;
22064;SDS011;11197;53.110;8.468;2023-06-26T08:44:50;14.23;;;11.15;;
22064;SDS011;11197;53.110;8.468;2023-06-26T08:47:17;18.08;;;12.95;;
22064;SDS011;11197;53.110;8.468;2023-06-26T08:49:51;16.52;;;12.20;;
22064;SDS011;11197;53.110;8.468;2023-06-26T08:52:22;15.90;;;10.20;;
22064;SDS011;11197;53.110;8.468;2023-06-26T08:54:51;14.57;;;7.25;;
22064;SDS011;11197;53.110;8.468;2023-06-26T08:57:21;12.63;;;7.43;;
22064;SDS011;11197;53.110;8.468;2023-06-26T08:59:48;12.93;;;6.88;;
22064;SDS011;11197;53.110;8.468;2023-06-26T09:02:14;15.18;;;6.80;;
22064;SDS011;11197;53.110;8.468;2023-06-26T09:04:40;10.05;;;6.30;;
22064;SDS011;11197;53.110;8.468;2023-06-26T09:07:07;11.48;;;6.60;;
22064;SDS011;11197;53.110;8.468;2023-06-26T09:09:33;10.38;;;5.25;;
22064;SDS011;11197;53.110;8.468;2023-06-26T09:11:58;9.65;;;4.45;;
22064;SDS011;11197;53.110;8.468;2023-06-26T09:14:26;9.30;;;4.28;;
22064;SDS011;11197;53.110;8.468;2023-06-26T09:16:52;10.50;;;4.20;;
22064;SDS011;11197;53.110;8.468;2023-06-26T09:19:18;11.18;;;4.03;;
22064;SDS011;11197;53.110;8.468;2023-06-26T09:21:43;9.23;;;3.78;;
22064;SDS011;11197;53.110;8.468;2023-06-26T09:24:09;11.95;;;4.10;;
22064;SDS011;11197;53.110;8.468;2023-06-26T09:26:36;9.55;;;4.00;;
22064;SDS011;11197;53.110;8.468;2023-06-26T09:29:03;10.10;;;3.40;;
22064;SDS011;11197;53.110;8.468;2023-06-26T09:31:30;7.65;;;3.15;;
22064;SDS011;11197;53.110;8.468;2023-06-26T09:33:58;11.15;;;3.22;;
22064;SDS011;11197;53.110;8.468;2023-06-26T09:36:26;8.27;;;2.72;;
22064;SDS011;11197;53.110;8.468;2023-06-26T09:38:53;7.05;;;3.15;;
22064;SDS011;11197;53.110;8.468;2023-06-26T09:41:20;7.20;;;3.22;;
22064;SDS011;11197;53.110;8.468;2023-06-26T09:43:49;6.38;;;2.85;;
22064;SDS011;11197;53.110;8.468;2023-06-26T09:46:16;10.88;;;2.90;;
22064;SDS011;11197;53.110;8.468;2023-06-26T09:48:43;8.23;;;2.80;;
22064;SDS011;11197;53.110;8.468;2023-06-26T09:51:09;8.40;;;2.45;;
22064;SDS011;11197;53.110;8.468;2023-06-26T09:53:35;5.68;;;1.90;;
22064;SDS011;11197;53.110;8.468;2023-06-26T09:56:07;4.82;;;1.80;;
22064;SDS011;11197;53.110;8.468;2023-06-26T09:58:33;6.38;;;1.70;;
22064;SDS011;11197;53.110;8.468;2023-06-26T10:01:00;5.97;;;1.83;;
22064;SDS011;11197;53.110;8.468;2023-06-26T10:03:26;8.98;;;1.75;;
22064;SDS011;11197;53.110;8.468;2023-06-26T10:05:52;8.98;;;2.05;;
22064;SDS011;11197;53.110;8.468;2023-06-26T10:08:18;5.70;;;1.60;;
22064;SDS011;11197;53.110;8.468;2023-06-26T10:10:44;5.25;;;1.50;;
22064;SDS011;11197;53.110;8.468;2023-06-26T10:13:22;8.93;;;1.90;;
22064;SDS011;11197;53.110;8.468;2023-06-26T10:16:03;4.85;;;1.50;;
22064;SDS011;11197;53.110;8.468;2023-06-26T10:18:32;10.40;;;1.60;;
22064;SDS011;11197;53.110;8.468;2023-06-26T10:21:00;5.80;;;1.60;;
22064;SDS011;11197;53.110;8.468;2023-06-26T10:23:27;4.53;;;1.58;;
22064;SDS011;11197;53.110;8.468;2023-06-26T10:25:55;6.70;;;1.58;;
22064;SDS011;11197;53.110;8.468;2023-06-26T10:28:24;3.72;;;1.35;;
22064;SDS011;11197;53.110;8.468;2023-06-26T10:30:54;5.30;;;1.60;;
22064;SDS011;11197;53.110;8.468;2023-06-26T10:33:21;4.30;;;1.60;;
22064;SDS011;11197;53.110;8.468;2023-06-26T10:35:47;5.68;;;1.70;;
22064;SDS011;11197;53.110;8.468;2023-06-26T10:38:14;5.47;;;1.52;;
22064;SDS011;11197;53.110;8.468;2023-06-26T10:40:41;5.10;;;1.55;;
22064;SDS011;11197;53.110;8.468;2023-06-26T10:43:09;5.40;;;1.67;;
22064;SDS011;11197;53.110;8.468;2023-06-26T10:45:36;3.45;;;1.45;;
22064;SDS011;11197;53.110;8.468;2023-06-26T10:48:02;8.23;;;1.70;;
22064;SDS011;11197;53.110;8.468;2023-06-26T10:50:32;5.07;;;1.58;;
22064;SDS011;11197;53.110;8.468;2023-06-26T10:55:49;5.72;;;1.58;;
22064;SDS011;11197;53.110;8.468;2023-06-26T11:01:13;6.57;;;1.52;;
22064;SDS011;11197;53.110;8.468;2023-06-26T11:03:59;5.53;;;1.63;;
22064;SDS011;11197;53.110;8.468;2023-06-26T11:06:29;6.55;;;1.60;;
22064;SDS011;11197;53.110;8.468;2023-06-26T11:14:22;6.63;;;1.52;;
22064;SDS011;11197;53.110;8.468;2023-06-26T11:16:49;5.85;;;1.85;;
22064;SDS011;11197;53.110;8.468;2023-06-26T11:19:16;7.13;;;2.10;;
22064;SDS011;11197;53.110;8.468;2023-06-26T11:21:43;5.38;;;1.98;;
22064;SDS011;11197;53.110;8.468;2023-06-26T11:24:11;5.45;;;1.73;;
22064;SDS011;11197;53.110;8.468;2023-06-26T11:26:37;6.20;;;2.10;;
22064;SDS011;11197;53.110;8.468;2023-06-26T11:29:04;5.22;;;1.80;;
22064;SDS011;11197;53.110;8.468;2023-06-26T11:31:31;4.88;;;1.38;;
22064;SDS011;11197;53.110;8.468;2023-06-26T11:34:02;4.75;;;1.75;;
22064;SDS011;11197;53.110;8.468;2023-06-26T11:36:34;4.35;;;1.50;;
22064;SDS011;11197;53.110;8.468;2023-06-26T11:39:03;3.42;;;1.65;;
22064;SDS011;11197;53.110;8.468;2023-06-26T11:41:36;6.30;;;1.75;;
22064;SDS011;11197;53.110;8.468;2023-06-26T11:44:03;4.45;;;1.70;;
22064;SDS011;11197;53.110;8.468;2023-06-26T11:46:31;5.50;;;1.60;;
22064;SDS011;11197;53.110;8.468;2023-06-26T11:48:57;4.47;;;1.80;;
22064;SDS011;11197;53.110;8.468;2023-06-26T11:51:23;4.82;;;1.80;;
22064;SDS011;11197;53.110;8.468;2023-06-26T11:53:51;6.00;;;1.83;;
22064;SDS011;11197;53.110;8.468;2023-06-26T11:56:18;4.55;;;1.65;;
22064;SDS011;11197;53.110;8.468;2023-06-26T12:01:36;7.10;;;1.70;;
22064;SDS011;11197;53.110;8.468;2023-06-26T12:04:12;6.93;;;1.73;;
22064;SDS011;11197;53.110;8.468;2023-06-26T12:06:40;3.70;;;1.58;;
22064;SDS011;11197;53.110;8.468;2023-06-26T12:09:14;4.25;;;1.70;;
22064;SDS011;11197;53.110;8.468;2023-06-26T12:11:43;4.55;;;1.75;;
22064;SDS011;11197;53.110;8.468;2023-06-26T12:14:10;5.90;;;1.70;;
22064;SDS011;11197;53.110;8.468;2023-06-26T12:16:36;3.75;;;1.50;;
22064;SDS011;11197;53.110;8.468;2023-06-26T12:19:06;5.07;;;1.60;;
22064;SDS011;11197;53.110;8.468;2023-06-26T12:24:08;5.28;;;1.58;;
22064;SDS011;11197;53.110;8.468;2023-06-26T12:26:35;4.50;;;1.67;;
22064;SDS011;11197;53.110;8.468;2023-06-26T12:31:34;3.10;;;1.65;;
22064;SDS011;11197;53.110;8.468;2023-06-26T12:34:01;4.00;;;1.65;;
22064;SDS011;11197;53.110;8.468;2023-06-26T12:36:27;3.90;;;1.55;;
22064;SDS011;11197;53.110;8.468;2023-06-26T12:38:53;6.07;;;1.70;;
22064;SDS011;11197;53.110;8.468;2023-06-26T12:41:19;5.88;;;1.80;;
22064;SDS011;11197;53.110;8.468;2023-06-26T12:43:49;5.38;;;1.80;;
22064;SDS011;11197;53.110;8.468;2023-06-26T12:46:15;6.60;;;1.85;;
22064;SDS011;11197;53.110;8.468;2023-06-26T12:48:41;4.22;;;1.95;;
22064;SDS011;11197;53.110;8.468;2023-06-26T12:51:12;7.07;;;2.10;;
22064;SDS011;11197;53.110;8.468;2023-06-26T12:53:39;4.50;;;1.92;;
22064;SDS011;11197;53.110;8.468;2023-06-26T12:56:06;5.35;;;1.70;;
22064;SDS011;11197;53.110;8.468;2023-06-26T12:58:33;3.42;;;1.73;;
22064;SDS011;11197;53.110;8.468;2023-06-26T13:01:00;5.00;;;1.67;;
22064;SDS011;11197;53.110;8.468;2023-06-26T13:03:31;7.95;;;1.98;;
22064;SDS011;11197;53.110;8.468;2023-06-26T13:05:56;5.45;;;1.80;;
22064;SDS011;11197;53.110;8.468;2023-06-26T13:08:22;5.35;;;2.03;;
22064;SDS011;11197;53.110;8.468;2023-06-26T13:10:48;6.63;;;1.98;;
22064;SDS011;11197;53.110;8.468;2023-06-26T13:13:14;6.15;;;2.00;;
22064;SDS011;11197;53.110;8.468;2023-06-26T13:15:40;5.82;;;2.17;;
22064;SDS011;11197;53.110;8.468;2023-06-26T13:18:05;6.93;;;1.88;;
22064;SDS011;11197;53.110;8.468;2023-06-26T13:20:31;5.78;;;1.92;;
22064;SDS011;11197;53.110;8.468;2023-06-26T13:22:57;7.43;;;1.90;;
22064;SDS011;11197;53.110;8.468;2023-06-26T13:25:22;4.43;;;1.83;;
22064;SDS011;11197;53.110;8.468;2023-06-26T13:27:48;4.28;;;1.73;;
22064;SDS011;11197;53.110;8.468;2023-06-26T13:30:14;7.05;;;1.92;;
22064;SDS011;11197;53.110;8.468;2023-06-26T13:32:41;5.75;;;2.10;;
22064;SDS011;11197;53.110;8.468;2023-06-26T13:35:08;4.38;;;1.80;;
22064;SDS011;11197;53.110;8.468;2023-06-26T13:37:34;8.30;;;2.15;;
22064;SDS011;11197;53.110;8.468;2023-06-26T13:40:02;4.50;;;1.85;;
22064;SDS011;11197;53.110;8.468;2023-06-26T13:42:28;6.00;;;1.80;;
22064;SDS011;11197;53.110;8.468;2023-06-26T13:44:54;6.18;;;2.05;;
22064;SDS011;11197;53.110;8.468;2023-06-26T13:47:20;8.55;;;2.10;;
22064;SDS011;11197;53.110;8.468;2023-06-26T13:49:46;5.13;;;1.83;;
22064;SDS011;11197;53.110;8.468;2023-06-26T13:52:12;5.82;;;2.10;;
22064;SDS011;11197;53.110;8.468;2023-06-26T13:54:38;3.90;;;1.90;;
22064;SDS011;11197;53.110;8.468;2023-06-26T13:57:08;7.78;;;1.92;;
22064;SDS011;11197;53.110;8.468;2023-06-26T13:59:36;6.15;;;1.80;;
22064;SDS011;11197;53.110;8.468;2023-06-26T14:02:04;4.82;;;2.03;;
22064;SDS011;11197;53.110;8.468;2023-06-26T14:04:31;6.10;;;2.35;;
22064;SDS011;11197;53.110;8.468;2023-06-26T14:06:57;4.18;;;1.80;;
22064;SDS011;11197;53.110;8.468;2023-06-26T14:09:23;4.55;;;1.83;;
22064;SDS011;11197;53.110;8.468;2023-06-26T14:11:49;6.22;;;2.08;;
22064;SDS011;11197;53.110;8.468;2023-06-26T14:14:15;5.68;;;1.73;;
22064;SDS011;11197;53.110;8.468;2023-06-26T14:16:40;5.25;;;1.95;;
22064;SDS011;11197;53.110;8.468;2023-06-26T14:19:06;5.38;;;1.92;;
22064;SDS011;11197;53.110;8.468;2023-06-26T14:21:32;5.75;;;1.95;;
22064;SDS011;11197;53.110;8.468;2023-06-26T14:23:58;5.60;;;1.80;;
22064;SDS011;11197;53.110;8.468;2023-06-26T14:26:24;5.10;;;1.70;;
22064;SDS011;11197;53.110;8.468;2023-06-26T14:28:50;5.90;;;1.80;;
22064;SDS011;11197;53.110;8.468;2023-06-26T14:31:16;5.00;;;1.70;;
22064;SDS011;11197;53.110;8.468;2023-06-26T14:33:42;6.10;;;1.80;;
22064;SDS011;11197;53.110;8.468;2023-06-26T14:36:07;6.72;;;1.80;;
22064;SDS011;11197;53.110;8.468;2023-06-26T14:38:33;5.68;;;1.90;;
22064;SDS011;11197;53.110;8.468;2023-06-26T14:40:59;6.03;;;1.55;;
22064;SDS011;11197;53.110;8.468;2023-06-26T14:43:24;5.85;;;1.95;;
22064;SDS011;11197;53.110;8.468;2023-06-26T14:45:50;11.38;;;2.15;;
22064;SDS011;11197;53.110;8.468;2023-06-26T14:48:16;4.82;;;1.73;;
22064;SDS011;11197;53.110;8.468;2023-06-26T14:50:42;7.57;;;2.03;;
22064;SDS011;11197;53.110;8.468;2023-06-26T14:53:07;7.05;;;1.70;;
22064;SDS011;11197;53.110;8.468;2023-06-26T14:55:33;4.25;;;1.75;;
22064;SDS011;11197;53.110;8.468;2023-06-26T14:57:59;7.68;;;1.67;;
22064;SDS011;11197;53.110;8.468;2023-06-26T15:00:24;7.13;;;1.80;;
22064;SDS011;11197;53.110;8.468;2023-06-26T15:02:52;5.78;;;1.67;;
22064;SDS011;11197;53.110;8.468;2023-06-26T15:05:22;6.18;;;2.00;;
22064;SDS011;11197;53.110;8.468;2023-06-26T15:07:51;5.95;;;1.60;;
22064;SDS011;11197;53.110;8.468;2023-06-26T15:10:16;9.57;;;2.00;;
22064;SDS011;11197;53.110;8.468;2023-06-26T15:12:43;5.90;;;1.75;;